createdAt,value
2022-10-08T00:05:01.647Z,12.10
2022-10-08T00:10:07.141Z,12.50
2022-10-08T00:15:12.107Z,11.17
2022-10-08T00:20:14.940Z,11.87
2022-10-08T00:25:17.691Z,12.49
2022-10-08T00:30:20.592Z,12.05
2022-10-08T00:35:23.296Z,11.79
2022-10-08T00:40:44.210Z,12.49
2022-10-08T00:45:48.841Z,12.67
2022-10-08T00:50:52.413Z,11.86
2022-10-08T00:56:01.345Z,12.67
2022-10-08T01:01:04.591Z,11.78
2022-10-08T01:06:21.847Z,12.18
2022-10-08T01:11:37.732Z,12.44
2022-10-08T01:16:52.382Z,12.13
2022-10-08T01:22:30.710Z,12.71
2022-10-08T01:27:35.331Z,11.25
2022-10-08T01:32:42.615Z,12.25
2022-10-08T01:37:47.114Z,12.82
2022-10-08T01:42:53.482Z,12.60
2022-10-08T01:48:00.789Z,12.52
2022-10-08T01:53:12.555Z,12.78
2022-10-08T01:58:19.807Z,11.53
2022-10-08T02:03:22.884Z,12.46
2022-10-08T02:08:25.894Z,12.29
2022-10-08T02:13:28.598Z,12.37
2022-10-08T02:18:41.838Z,12.47
2022-10-08T02:23:53.865Z,12.03
2022-10-08T02:29:03.112Z,12.18
2022-10-08T02:34:32.261Z,12.11
2022-10-08T02:39:39.253Z,12.08
2022-10-08T02:44:54.275Z,11.89
2022-10-08T02:50:03.588Z,12.04
2022-10-08T02:55:26.288Z,11.55
2022-10-08T03:00:36.965Z,11.19
2022-10-08T03:05:42.866Z,11.62
2022-10-08T03:10:45.974Z,11.46
2022-10-08T03:15:53.246Z,11.42
2022-10-08T03:20:56.875Z,11.26
2022-10-08T03:25:59.776Z,11.15
2022-10-08T03:31:06.701Z,11.31
2022-10-08T03:36:09.869Z,11.31
2022-10-08T03:41:12.934Z,11.11
2022-10-08T03:46:16.429Z,11.61
2022-10-08T03:51:21.523Z,11.43
2022-10-08T03:56:25.759Z,11.47
2022-10-08T04:01:29.998Z,11.36
2022-10-08T04:06:32.963Z,11.63
2022-10-08T04:11:35.653Z,11.43
2022-10-08T04:16:38.672Z,11.64
2022-10-08T04:21:41.526Z,11.55
2022-10-08T04:26:44.350Z,11.32
2022-10-08T04:31:47.614Z,11.19
2022-10-08T04:36:50.341Z,11.13
2022-10-08T04:41:53.171Z,11.35
2022-10-08T04:46:56.119Z,11.55
2022-10-08T04:51:59.107Z,11.23
2022-10-08T04:57:03.578Z,11.26
2022-10-08T05:02:06.683Z,11.63
2022-10-08T05:07:09.739Z,11.58
2022-10-08T05:12:12.557Z,11.48
2022-10-08T05:17:15.442Z,11.02
2022-10-08T05:22:18.253Z,11.37
2022-10-08T05:27:29.337Z,11.06
2022-10-08T05:32:31.957Z,11.17
2022-10-08T05:37:38.022Z,11.18
2022-10-08T05:42:43.642Z,11.29
2022-10-08T05:47:49.298Z,11.13
2022-10-08T05:52:52.252Z,10.91
2022-10-08T05:57:55.080Z,11.25
2022-10-08T06:02:59.168Z,11.65
2022-10-08T06:08:02.189Z,10.94
2022-10-08T06:13:05.135Z,11.07
2022-10-08T06:18:07.821Z,11.99
2022-10-08T06:23:10.465Z,11.64
2022-10-08T06:28:14.069Z,11.75
2022-10-08T06:33:18.802Z,12.16
2022-10-08T06:38:22.187Z,12.24
2022-10-08T06:43:24.862Z,12.24
2022-10-08T06:48:28.427Z,12.71
2022-10-08T06:53:31.814Z,13.06
2022-10-08T06:58:41.474Z,13.22
2022-10-08T07:03:44.230Z,13.54
2022-10-08T07:08:47.602Z,13.79
2022-10-08T07:13:52.301Z,13.71
2022-10-08T07:18:59.188Z,13.84
2022-10-08T07:24:02.660Z,14.13
2022-10-08T07:29:14.778Z,14.55
2022-10-08T07:34:17.502Z,14.76
2022-10-08T07:39:20.563Z,15.01
2022-10-08T07:44:23.449Z,15.11
2022-10-08T07:49:26.677Z,15.72
2022-10-08T07:54:39.781Z,16.01
2022-10-08T07:59:44.735Z,16.14
2022-10-08T08:04:47.529Z,16.53
2022-10-08T08:09:55.948Z,16.91
2022-10-08T08:14:58.677Z,17.36
2022-10-08T08:20:01.629Z,17.55
2022-10-08T08:25:04.638Z,18.02
2022-10-08T08:30:16.569Z,18.04
2022-10-08T08:35:19.772Z,18.58
2022-10-08T08:40:22.788Z,18.52
2022-10-08T08:45:47.232Z,19.50
2022-10-08T08:50:54.418Z,19.88
2022-10-08T08:56:00.649Z,19.83
2022-10-08T09:01:09.614Z,21.92
2022-10-08T09:06:19.293Z,21.88
2022-10-08T09:54:56.045Z,22.48
2022-10-08T10:00:03.278Z,22.91
2022-10-08T10:05:19.030Z,22.59
2022-10-08T10:10:29.817Z,23.02
2022-10-08T10:15:40.694Z,21.36
2022-10-08T10:20:49.288Z,22.80
2022-10-08T10:26:06.708Z,23.32
2022-10-08T10:31:35.143Z,23.54
2022-10-08T10:36:44.710Z,22.69
2022-10-08T10:41:53.948Z,23.67
2022-10-08T10:46:59.845Z,22.94
2022-10-08T10:52:24.749Z,22.47
2022-10-08T10:57:53.801Z,22.01
2022-10-08T11:03:23.274Z,20.97
2022-10-08T11:08:36.558Z,21.50
2022-10-08T11:13:54.785Z,21.42
2022-10-08T11:19:00.359Z,20.85
2022-10-08T11:24:23.255Z,20.50
2022-10-08T11:29:39.290Z,20.83
2022-10-08T11:34:51.508Z,20.81
2022-10-08T11:40:22.602Z,20.74
2022-10-08T11:45:25.432Z,20.98
2022-10-08T11:50:36.935Z,21.11
2022-10-08T11:55:50.506Z,20.45
2022-10-08T12:01:04.479Z,20.15
2022-10-08T12:06:19.093Z,20.67
2022-10-08T12:11:30.989Z,20.85
2022-10-08T12:17:06.134Z,20.63
2022-10-08T12:22:15.054Z,21.21
2022-10-08T12:27:18.354Z,21.28
2022-10-08T12:38:14.435Z,20.54
2022-10-08T12:43:26.096Z,20.88
2022-10-08T12:48:43.914Z,21.14
2022-10-08T12:53:48.463Z,20.72
2022-10-08T12:58:54.425Z,20.74
2022-10-08T13:04:20.030Z,21.36
2022-10-08T13:09:28.953Z,21.70
2022-10-08T13:14:39.498Z,21.36
2022-10-08T13:19:43.168Z,21.40
2022-10-08T13:24:46.911Z,20.72
2022-10-08T13:29:50.712Z,21.88
2022-10-08T13:35:02.710Z,21.57
2022-10-08T13:40:18.947Z,21.71
2022-10-08T13:45:27.259Z,21.39
2022-10-08T13:50:31.573Z,20.76
2022-10-08T13:56:27.573Z,21.36
2022-10-08T14:01:30.351Z,21.53
2022-10-08T14:11:56.729Z,21.29
2022-10-08T14:17:00.458Z,20.69
2022-10-08T14:22:04.678Z,20.91
2022-10-08T14:27:08.559Z,20.31
2022-10-08T14:32:12.837Z,20.19
2022-10-08T14:37:16.415Z,20.13
2022-10-08T14:42:19.962Z,20.17
2022-10-08T14:47:24.288Z,19.97
2022-10-08T14:57:33.684Z,19.50
2022-10-08T15:02:37.614Z,20.07
2022-10-08T15:07:41.383Z,18.76
2022-10-08T15:12:45.234Z,20.08
2022-10-08T15:17:58.408Z,19.15
2022-10-08T15:23:02.895Z,19.64
2022-10-08T15:28:08.299Z,19.94
2022-10-08T15:33:12.064Z,19.65
2022-10-08T15:38:15.814Z,19.75
2022-10-08T15:43:20.097Z,19.89
2022-10-08T15:48:23.650Z,19.80
2022-10-08T15:53:27.231Z,19.55
2022-10-08T15:58:50.276Z,18.38
2022-10-08T16:03:57.041Z,18.10
2022-10-08T16:09:02.263Z,18.50
2022-10-08T16:14:13.372Z,19.17
2022-10-08T16:19:20.136Z,18.13
2022-10-08T16:24:24.361Z,17.88
2022-10-08T16:29:27.874Z,17.65
2022-10-08T16:34:32.682Z,16.82
2022-10-08T16:39:36.218Z,16.88
2022-10-08T16:44:40.313Z,16.75
2022-10-08T16:49:44.797Z,16.87
2022-10-08T16:54:52.488Z,16.96
2022-10-08T16:59:58.862Z,16.53
2022-10-08T17:05:03.626Z,16.17
2022-10-08T17:10:07.578Z,16.09
2022-10-08T17:15:11.926Z,16.19
2022-10-08T17:20:15.477Z,16.24
2022-10-08T17:25:19.824Z,15.68
2022-10-08T17:30:23.310Z,15.39
2022-10-08T17:35:26.746Z,15.30
2022-10-08T17:40:31.245Z,15.11
2022-10-08T17:45:34.857Z,15.25
2022-10-08T17:50:38.535Z,15.39
2022-10-08T17:55:43.797Z,14.82
2022-10-08T18:00:52.148Z,15.10
2022-10-08T18:05:59.889Z,14.94
2022-10-08T18:11:06.448Z,14.52
2022-10-08T18:16:13.903Z,14.93
2022-10-08T18:21:27.667Z,14.14
2022-10-08T18:26:33.133Z,14.22
2022-10-08T18:31:37.899Z,14.46
2022-10-08T18:36:43.493Z,14.48
2022-10-08T18:41:51.511Z,14.30
2022-10-08T18:52:02.881Z,13.98
2022-10-08T18:57:06.485Z,13.95
2022-10-08T19:02:10.905Z,13.84
2022-10-08T19:07:14.664Z,13.96
2022-10-08T19:12:18.261Z,13.40
2022-10-08T19:17:22.013Z,13.33
2022-10-08T19:22:25.731Z,13.33
2022-10-08T19:27:29.167Z,13.53
2022-10-08T19:32:32.571Z,13.00
2022-10-08T19:37:36.345Z,13.05
2022-10-08T19:42:39.850Z,12.81
2022-10-08T19:47:43.556Z,12.84
2022-10-08T19:52:51.633Z,12.52
2022-10-08T19:58:05.901Z,13.06
2022-10-08T20:03:09.418Z,12.65
2022-10-08T20:08:12.970Z,12.17
2022-10-08T20:13:16.382Z,12.10
2022-10-08T20:18:19.897Z,12.51
2022-10-08T20:23:23.810Z,12.31
2022-10-08T20:28:27.768Z,12.24
2022-10-08T20:33:31.398Z,12.04
2022-10-08T20:38:34.910Z,11.63
2022-10-08T20:43:39.332Z,12.19
2022-10-08T20:48:44.689Z,11.81
2022-10-08T20:53:50.908Z,12.16
2022-10-08T20:58:54.422Z,11.99
2022-10-08T21:03:58.426Z,11.66
2022-10-08T21:09:02.128Z,11.82
2022-10-08T21:14:07.175Z,11.75
2022-10-08T21:19:19.783Z,12.09
2022-10-08T21:24:23.274Z,11.85
2022-10-08T21:29:27.734Z,11.21
2022-10-08T21:34:31.248Z,11.65
2022-10-08T21:39:34.778Z,11.75
2022-10-08T21:44:40.894Z,11.54
2022-10-08T21:49:45.538Z,11.92
2022-10-08T21:54:49.265Z,11.51
2022-10-08T21:59:53.066Z,11.64
2022-10-08T22:04:56.665Z,11.19
2022-10-08T22:10:00.404Z,10.98
2022-10-08T22:15:14.098Z,11.22
2022-10-08T22:20:17.803Z,11.23
2022-10-08T22:25:21.190Z,11.11
2022-10-08T22:30:24.825Z,11.16
2022-10-08T22:35:32.218Z,11.02
2022-10-08T22:40:36.127Z,11.29
2022-10-08T22:45:42.326Z,11.26
2022-10-08T22:50:56.979Z,11.28
2022-10-08T22:56:00.848Z,11.05
2022-10-08T23:01:11.470Z,11.00
2022-10-08T23:06:26.334Z,11.20
2022-10-08T23:11:30.775Z,10.92
2022-10-08T23:16:44.528Z,10.97
2022-10-08T23:21:47.979Z,10.64
2022-10-08T23:26:51.411Z,10.47
2022-10-08T23:31:54.979Z,10.51
2022-10-08T23:36:58.408Z,10.23
2022-10-08T23:42:01.750Z,10.34
2022-10-08T23:47:15.509Z,10.20
2022-10-08T23:52:18.968Z,10.22
2022-10-08T23:57:22.615Z,10.03
